KRND

Randolph AFB Airport

Universal City, Texas, USA
METAR KRND 230556Z AUTO 33004KT 10SM -RA FEW047 12/10 A3018 RMK AO2 SLP218 P0002 60017 T01190103 10157 20117 401780117 50002 $
Observed Flight Rules
Oct-23 @ 05:56 UTC (20 minutes ago) Visual Flight Rules
Wind Visibility Clouds Conditions
330° at 4 knots 10 miles
  • Few at 4,700' AGL
  • Light Rain
Temperatures Readings Precipitation
Current 12°C / 54°F
Dewpoint 10°C / 50°F
Humidity 88%
Altimeter 30.18" Hg
Pressure 1021.8 hPa
Elevation 232
Current Rain 0.02
METAR KRND 230556Z AUTO 33004KT 10SM -RA FEW047 12/10 A3018 RMK AO2 SLP218 P0002 60017 T01190103 10157 20117 401780117 50002 $
Observed Flight Rules
Oct-23 @ 05:56 UTC
(20 minutes ago)
VFR
Wind Visibility
330° at 4 knots 10 miles
Clouds
  • Few at 4,700' AGL
Conditions
  • Light Rain
Temperature Dewpoint
12°C / 54°F 10°C / 50°F
Humidity Altimeter Pressure
88% 30.18" Hg 1021.8 hPa
Current Rain
0.02